sensor_id;sensor_type;location;lat;lon;timestamp;pressure;altitude;pressure_sealevel;temperature;humidity
51239;BME280;38154;47.548;18.828;2022-11-18T00:00:45;97375.69;;;4.06;100.00
51239;BME280;38154;47.548;18.828;2022-11-18T00:03:11;97372.22;;;4.03;100.00
51239;BME280;38154;47.548;18.828;2022-11-18T00:05:37;97365.34;;;3.97;100.00
51239;BME280;38154;47.548;18.828;2022-11-18T00:08:03;97365.31;;;3.94;100.00
51239;BME280;38154;47.548;18.828;2022-11-18T00:10:29;97357.56;;;3.91;100.00
51239;BME280;38154;47.548;18.828;2022-11-18T00:12:56;97357.56;;;3.91;100.00
51239;BME280;38154;47.548;18.828;2022-11-18T00:15:41;97357.53;;;3.88;100.00
51239;BME280;38154;47.548;18.828;2022-11-18T00:18:07;97368.69;;;3.87;100.00
51239;BME280;38154;47.548;18.828;2022-11-18T00:20:33;97365.25;;;3.83;100.00
51239;BME280;38154;47.548;18.828;2022-11-18T00:22:59;97375.53;;;3.80;100.00
51239;BME280;38154;47.548;18.828;2022-11-18T00:25:26;97370.38;;;3.80;100.00
51239;BME280;38154;47.548;18.828;2022-11-18T00:27:52;97358.31;;;3.73;100.00
51239;BME280;38154;47.548;18.828;2022-11-18T00:30:18;97341.97;;;3.66;100.00
51239;BME280;38154;47.548;18.828;2022-11-18T00:32:44;97348.84;;;3.66;100.00
51239;BME280;38154;47.548;18.828;2022-11-18T00:35:10;97352.28;;;3.66;100.00
51239;BME280;38154;47.548;18.828;2022-11-18T00:37:36;97341.91;;;3.60;100.00
51239;BME280;38154;47.548;18.828;2022-11-18T00:40:02;97336.75;;;3.56;100.00
51239;BME280;38154;47.548;18.828;2022-11-18T00:42:27;97326.44;;;3.54;100.00
51239;BME280;38154;47.548;18.828;2022-11-18T00:45:12;97325.56;;;3.55;100.00
51239;BME280;38154;47.548;18.828;2022-11-18T00:47:38;97327.34;;;3.62;100.00
51239;BME280;38154;47.548;18.828;2022-11-18T00:50:04;97327.38;;;3.70;100.00
51239;BME280;38154;47.548;18.828;2022-11-18T00:52:30;97329.97;;;3.73;100.00
51239;BME280;38154;47.548;18.828;2022-11-18T00:54:55;97335.97;;;3.69;100.00
51239;BME280;38154;47.548;18.828;2022-11-18T00:57:21;97326.47;;;3.63;100.00
51239;BME280;38154;47.548;18.828;2022-11-18T00:59:47;97331.63;;;3.57;100.00
51239;BME280;38154;47.548;18.828;2022-11-18T01:02:13;97332.41;;;3.50;100.00
51239;BME280;38154;47.548;18.828;2022-11-18T01:04:39;97326.37;;;3.46;100.00
51239;BME280;38154;47.548;18.828;2022-11-18T01:07:05;97324.66;;;3.48;100.00
51239;BME280;38154;47.548;18.828;2022-11-18T01:09:30;97326.41;;;3.51;100.00
51239;BME280;38154;47.548;18.828;2022-11-18T01:11:56;97326.50;;;3.69;100.00
51239;BME280;38154;47.548;18.828;2022-11-18T01:14:41;97324.06;;;3.94;100.00
51239;BME280;38154;47.548;18.828;2022-11-18T01:17:07;97311.16;;;4.00;100.00
51239;BME280;38154;47.548;18.828;2022-11-18T01:19:32;97302.63;;;4.09;100.00
51239;BME280;38154;47.548;18.828;2022-11-18T01:21:58;97299.25;;;4.39;100.00
51239;BME280;38154;47.548;18.828;2022-11-18T01:24:29;97300.16;;;4.66;100.00
51239;BME280;38154;47.548;18.828;2022-11-18T01:26:55;97291.56;;;4.78;100.00
51239;BME280;38154;47.548;18.828;2022-11-18T01:29:21;97297.56;;;4.83;100.00
51239;BME280;38154;47.548;18.828;2022-11-18T01:31:47;97311.34;;;4.91;100.00
51239;BME280;38154;47.548;18.828;2022-11-18T01:34:13;97313.94;;;4.91;100.00
51239;BME280;38154;47.548;18.828;2022-11-18T01:36:39;97314.78;;;4.82;100.00
51239;BME280;38154;47.548;18.828;2022-11-18T01:39:04;97323.38;;;4.72;100.00
51239;BME280;38154;47.548;18.828;2022-11-18T01:41:30;97333.72;;;4.64;100.00
51239;BME280;38154;47.548;18.828;2022-11-18T01:43:59;97335.41;;;4.64;100.00
51239;BME280;38154;47.548;18.828;2022-11-18T01:46:30;97322.50;;;4.64;100.00
51239;BME280;38154;47.548;18.828;2022-11-18T01:49:08;97318.19;;;4.69;100.00
51239;BME280;38154;47.548;18.828;2022-11-18T01:51:43;97320.81;;;5.06;100.00
51239;BME280;38154;47.548;18.828;2022-11-18T01:54:33;97331.13;;;5.17;100.00
51239;BME280;38154;47.548;18.828;2022-11-18T01:57:04;97325.97;;;5.23;100.00
51239;BME280;38154;47.548;18.828;2022-11-18T01:59:35;97322.50;;;5.24;100.00
51239;BME280;38154;47.548;18.828;2022-11-18T02:02:04;97321.66;;;5.24;100.00
51239;BME280;38154;47.548;18.828;2022-11-18T02:04:33;97314.75;;;5.30;100.00
51239;BME280;38154;47.548;18.828;2022-11-18T02:06:59;97310.44;;;5.42;100.00
51239;BME280;38154;47.548;18.828;2022-11-18T02:09:25;97313.88;;;5.42;100.00
51239;BME280;38154;47.548;18.828;2022-11-18T02:11:51;97307.84;;;5.42;100.00
51239;BME280;38154;47.548;18.828;2022-11-18T02:14:30;97308.72;;;5.41;100.00
51239;BME280;38154;47.548;18.828;2022-11-18T02:23:11;97301.81;;;5.44;100.00
51239;BME280;38154;47.548;18.828;2022-11-18T02:31:29;97286.13;;;5.95;100.00
51239;BME280;38154;47.548;18.828;2022-11-18T02:34:29;97277.50;;;6.04;100.00
51239;BME280;38154;47.548;18.828;2022-11-18T02:37:07;97277.50;;;6.01;100.00
51239;BME280;38154;47.548;18.828;2022-11-18T02:39:50;97270.63;;;5.89;100.00
51239;BME280;38154;47.548;18.828;2022-11-18T02:42:18;97268.97;;;5.77;100.00
51239;BME280;38154;47.548;18.828;2022-11-18T02:44:52;97250.09;;;5.56;100.00
51239;BME280;38154;47.548;18.828;2022-11-18T02:47:21;97251.00;;;5.43;100.00
51239;BME280;38154;47.548;18.828;2022-11-18T02:49:53;97241.56;;;5.30;100.00
51239;BME280;38154;47.548;18.828;2022-11-18T02:52:22;97248.47;;;5.18;100.00
51239;BME280;38154;47.548;18.828;2022-11-18T02:54:49;97239.84;;;5.19;100.00
51239;BME280;38154;47.548;18.828;2022-11-18T02:57:16;97230.38;;;5.15;100.00
51239;BME280;38154;47.548;18.828;2022-11-18T02:59:43;97235.53;;;5.11;100.00
51239;BME280;38154;47.548;18.828;2022-11-18T03:02:14;97242.44;;;5.07;100.00
51239;BME280;38154;47.548;18.828;2022-11-18T03:04:41;97257.09;;;5.05;100.00
51239;BME280;38154;47.548;18.828;2022-11-18T03:07:17;97260.53;;;5.07;100.00
51239;BME280;38154;47.548;18.828;2022-11-18T03:09:46;97257.09;;;5.05;100.00
51239;BME280;38154;47.548;18.828;2022-11-18T03:20:35;97275.19;;;5.07;100.00
51239;BME280;38154;47.548;18.828;2022-11-18T03:23:26;97266.50;;;5.32;100.00
51239;BME280;38154;47.548;18.828;2022-11-18T03:25:58;97257.87;;;5.39;100.00
51239;BME280;38154;47.548;18.828;2022-11-18T03:31:11;97269.09;;;5.40;100.00
51239;BME280;38154;47.548;18.828;2022-11-18T03:33:46;97277.72;;;5.31;100.00
51239;BME280;38154;47.548;18.828;2022-11-18T03:36:18;97279.44;;;5.32;100.00
51239;BME280;38154;47.548;18.828;2022-11-18T03:38:49;97269.09;;;5.28;100.00
51239;BME280;38154;47.548;18.828;2022-11-18T03:41:16;97276.84;;;5.31;100.00
51239;BME280;38154;47.548;18.828;2022-11-18T03:43:48;97291.50;;;5.36;100.00
51239;BME280;38154;47.548;18.828;2022-11-18T03:46:39;97297.53;;;5.40;100.00
51239;BME280;38154;47.548;18.828;2022-11-18T03:49:10;97309.56;;;5.39;100.00
51239;BME280;38154;47.548;18.828;2022-11-18T03:51:48;97306.12;;;5.42;100.00
51239;BME280;38154;47.548;18.828;2022-11-18T03:54:19;97299.22;;;5.44;100.00
51239;BME280;38154;47.548;18.828;2022-11-18T03:56:53;97288.88;;;5.44;100.00
51239;BME280;38154;47.548;18.828;2022-11-18T03:59:41;97282.78;;;5.68;100.00
51239;BME280;38154;47.548;18.828;2022-11-18T04:02:14;97278.41;;;5.84;100.00
51239;BME280;38154;47.548;18.828;2022-11-18T04:04:43;97279.25;;;5.92;100.00
51239;BME280;38154;47.548;18.828;2022-11-18T04:07:49;97278.41;;;5.97;100.00
51239;BME280;38154;47.548;18.828;2022-11-18T04:10:41;97260.22;;;6.10;100.00
51239;BME280;38154;47.548;18.828;2022-11-18T04:13:08;97246.38;;;6.16;100.00
51239;BME280;38154;47.548;18.828;2022-11-18T04:15:38;97237.78;;;6.11;100.00
51239;BME280;38154;47.548;18.828;2022-11-18T04:18:06;97231.81;;;5.93;100.00
51239;BME280;38154;47.548;18.828;2022-11-18T04:20:32;97213.75;;;5.83;100.00
51239;BME280;38154;47.548;18.828;2022-11-18T04:22:59;97220.59;;;6.01;100.00
51239;BME280;38154;47.548;18.828;2022-11-18T04:25:25;97229.19;;;6.04;100.00
51239;BME280;38154;47.548;18.828;2022-11-18T04:27:51;97212.72;;;6.16;100.00
51239;BME280;38154;47.548;18.828;2022-11-18T04:30:17;97205.81;;;6.17;100.00
51239;BME280;38154;47.548;18.828;2022-11-18T04:32:44;97204.13;;;6.12;100.00
51239;BME280;38154;47.548;18.828;2022-11-18T04:35:09;97188.63;;;6.08;100.00
51239;BME280;38154;47.548;18.828;2022-11-18T04:37:35;97182.56;;;6.13;100.00
51239;BME280;38154;47.548;18.828;2022-11-18T04:40:01;97196.25;;;6.26;100.00
51239;BME280;38154;47.548;18.828;2022-11-18T04:42:27;97207.44;;;6.30;100.00
51239;BME280;38154;47.548;18.828;2022-11-18T04:44:53;97213.50;;;6.35;100.00
51239;BME280;38154;47.548;18.828;2022-11-18T04:47:19;97217.75;;;6.38;100.00
51239;BME280;38154;47.548;18.828;2022-11-18T04:49:45;97212.66;;;6.28;100.00
51239;BME280;38154;47.548;18.828;2022-11-18T04:52:11;97215.97;;;6.46;100.00
51239;BME280;38154;47.548;18.828;2022-11-18T04:54:37;97228.81;;;6.60;100.00
51239;BME280;38154;47.548;18.828;2022-11-18T04:57:03;97241.84;;;6.52;100.00
51239;BME280;38154;47.548;18.828;2022-11-18T04:59:29;97253.91;;;6.52;100.00
51239;BME280;38154;47.548;18.828;2022-11-18T05:01:56;97232.38;;;6.46;100.00
51239;BME280;38154;47.548;18.828;2022-11-18T05:04:25;97222.84;;;6.48;100.00
51239;BME280;38154;47.548;18.828;2022-11-18T05:06:51;97215.94;;;6.54;100.00
51239;BME280;38154;47.548;18.828;2022-11-18T05:09:17;97215.91;;;6.55;100.00
51239;BME280;38154;47.548;18.828;2022-11-18T05:11:44;97223.72;;;6.52;100.00
51239;BME280;38154;47.548;18.828;2022-11-18T05:14:30;97212.50;;;6.48;100.00
51239;BME280;38154;47.548;18.828;2022-11-18T05:16:57;97203.91;;;6.45;100.00
51239;BME280;38154;47.548;18.828;2022-11-18T05:19:24;97211.66;;;6.46;100.00
51239;BME280;38154;47.548;18.828;2022-11-18T05:21:50;97208.12;;;6.55;100.00
51239;BME280;38154;47.548;18.828;2022-11-18T05:24:16;97221.06;;;6.55;100.00
51239;BME280;38154;47.548;18.828;2022-11-18T05:26:42;97211.53;;;6.62;100.00
51239;BME280;38154;47.548;18.828;2022-11-18T05:29:09;97214.06;;;6.68;100.00
51239;BME280;38154;47.548;18.828;2022-11-18T05:31:35;97208.91;;;6.65;100.00
51239;BME280;38154;47.548;18.828;2022-11-18T05:34:00;97207.25;;;6.59;100.00
51239;BME280;38154;47.548;18.828;2022-11-18T05:36:26;97206.44;;;6.53;100.00
51239;BME280;38154;47.548;18.828;2022-11-18T05:38:52;97220.03;;;6.79;100.00
51239;BME280;38154;47.548;18.828;2022-11-18T05:41:18;97216.59;;;6.77;100.00
51239;BME280;38154;47.548;18.828;2022-11-18T05:44:03;97204.47;;;6.81;100.00
51239;BME280;38154;47.548;18.828;2022-11-18T05:46:30;97189.88;;;6.72;100.00
51239;BME280;38154;47.548;18.828;2022-11-18T05:48:56;97200.31;;;6.61;100.00
51239;BME280;38154;47.548;18.828;2022-11-18T05:51:22;97202.03;;;6.62;100.00
51239;BME280;38154;47.548;18.828;2022-11-18T05:53:50;97204.50;;;6.76;100.00
51239;BME280;38154;47.548;18.828;2022-11-18T05:56:33;97214.06;;;6.69;100.00
51239;BME280;38154;47.548;18.828;2022-11-18T05:59:00;97210.63;;;6.67;100.00
51239;BME280;38154;47.548;18.828;2022-11-18T06:04:30;97210.69;;;6.61;100.00
51239;BME280;38154;47.548;18.828;2022-11-18T06:06:58;97213.22;;;6.66;100.00
51239;BME280;38154;47.548;18.828;2022-11-18T06:09:30;97217.63;;;6.56;100.00
51239;BME280;38154;47.548;18.828;2022-11-18T06:11:58;97216.78;;;6.56;100.00
51239;BME280;38154;47.548;18.828;2022-11-18T06:14:53;97215.00;;;6.61;100.00
51239;BME280;38154;47.548;18.828;2022-11-18T06:17:33;97208.12;;;6.57;100.00
51239;BME280;38154;47.548;18.828;2022-11-18T06:20:02;97204.69;;;6.53;100.00
51239;BME280;38154;47.548;18.828;2022-11-18T06:22:28;97201.25;;;6.53;100.00
51239;BME280;38154;47.548;18.828;2022-11-18T06:24:54;97215.06;;;6.53;100.00
51239;BME280;38154;47.548;18.828;2022-11-18T06:27:20;97208.16;;;6.54;100.00
51239;BME280;38154;47.548;18.828;2022-11-18T06:29:46;97207.28;;;6.53;100.00
51239;BME280;38154;47.548;18.828;2022-11-18T06:32:12;97200.41;;;6.52;100.00
51239;BME280;38154;47.548;18.828;2022-11-18T06:34:37;97209.03;;;6.53;100.00
51239;BME280;38154;47.548;18.828;2022-11-18T06:37:17;97211.59;;;6.54;100.00
51239;BME280;38154;47.548;18.828;2022-11-18T06:39:45;97198.63;;;6.59;100.00
51239;BME280;38154;47.548;18.828;2022-11-18T06:42:11;97208.94;;;6.62;100.00
51239;BME280;38154;47.548;18.828;2022-11-18T06:44:57;97201.22;;;6.59;100.00
51239;BME280;38154;47.548;18.828;2022-11-18T06:47:23;97202.91;;;6.63;100.00
51239;BME280;38154;47.548;18.828;2022-11-18T06:49:49;97196.03;;;6.60;100.00
51239;BME280;38154;47.548;18.828;2022-11-18T06:52:14;97202.78;;;6.77;100.00
51239;BME280;38154;47.548;18.828;2022-11-18T06:54:40;97194.97;;;6.78;100.00
51239;BME280;38154;47.548;18.828;2022-11-18T06:57:06;97195.78;;;6.85;100.00
51239;BME280;38154;47.548;18.828;2022-11-18T06:59:32;97199.97;;;6.98;100.00
51239;BME280;38154;47.548;18.828;2022-11-18T07:01:58;97199.19;;;6.88;100.00
51239;BME280;38154;47.548;18.828;2022-11-18T07:04:24;97200.16;;;6.80;100.00
51239;BME280;38154;47.548;18.828;2022-11-18T07:06:49;97197.59;;;6.75;100.00
51239;BME280;38154;47.548;18.828;2022-11-18T07:09:15;97199.34;;;6.73;100.00
51239;BME280;38154;47.548;18.828;2022-11-18T07:11:41;97204.47;;;6.81;100.00
51239;BME280;38154;47.548;18.828;2022-11-18T07:14:08;97207.09;;;6.78;100.00
51239;BME280;38154;47.548;18.828;2022-11-18T07:16:34;97209.69;;;6.78;100.00
51239;BME280;38154;47.548;18.828;2022-11-18T07:19:08;97212.25;;;6.81;100.00
51239;BME280;38154;47.548;18.828;2022-11-18T07:21:34;97214.88;;;6.76;100.00
51239;BME280;38154;47.548;18.828;2022-11-18T07:23:59;97205.34;;;6.80;100.00
51239;BME280;38154;47.548;18.828;2022-11-18T07:26:25;97206.97;;;6.88;100.00
51239;BME280;38154;47.548;18.828;2022-11-18T07:28:52;97201.78;;;6.88;100.00
51239;BME280;38154;47.548;18.828;2022-11-18T07:31:19;97197.47;;;6.92;100.00
51239;BME280;38154;47.548;18.828;2022-11-18T07:33:45;97186.22;;;6.90;100.00
51239;BME280;38154;47.548;18.828;2022-11-18T07:36:17;97188.00;;;6.88;100.00
51239;BME280;38154;47.548;18.828;2022-11-18T07:38:44;97181.00;;;6.95;100.00
51239;BME280;38154;47.548;18.828;2022-11-18T07:41:12;97177.44;;;7.06;100.00
51239;BME280;38154;47.548;18.828;2022-11-18T07:43:38;97170.47;;;7.12;100.00
51239;BME280;38154;47.548;18.828;2022-11-18T07:48:38;97171.25;;;7.20;100.00
51239;BME280;38154;47.548;18.828;2022-11-18T07:51:04;97170.31;;;7.25;100.00
51239;BME280;38154;47.548;18.828;2022-11-18T07:53:30;97158.25;;;7.24;100.00
51239;BME280;38154;47.548;18.828;2022-11-18T07:55:57;97164.28;;;7.25;100.00
51239;BME280;38154;47.548;18.828;2022-11-18T07:58:22;97160.81;;;7.26;100.00
51239;BME280;38154;47.548;18.828;2022-11-18T08:00:48;97166.91;;;7.20;100.00
51239;BME280;38154;47.548;18.828;2022-11-18T08:03:14;97164.31;;;7.22;100.00
51239;BME280;38154;47.548;18.828;2022-11-18T08:05:40;97163.63;;;7.08;100.00
51239;BME280;38154;47.548;18.828;2022-11-18T08:08:06;97161.03;;;7.06;100.00
51239;BME280;38154;47.548;18.828;2022-11-18T08:10:32;97163.63;;;7.06;100.00
51239;BME280;38154;47.548;18.828;2022-11-18T08:12:57;97179.22;;;7.03;100.00
51239;BME280;38154;47.548;18.828;2022-11-18T08:15:24;97174.91;;;7.00;100.00
51239;BME280;38154;47.548;18.828;2022-11-18T08:17:50;97174.00;;;7.04;100.00
51239;BME280;38154;47.548;18.828;2022-11-18T08:20:16;97174.03;;;7.01;100.00
51239;BME280;38154;47.548;18.828;2022-11-18T08:22:41;97168.88;;;7.00;100.00
51239;BME280;38154;47.548;18.828;2022-11-18T08:25:08;97174.91;;;7.00;100.00
51239;BME280;38154;47.548;18.828;2022-11-18T08:27:34;97165.41;;;7.02;100.00
51239;BME280;38154;47.548;18.828;2022-11-18T08:30:00;97158.50;;;7.01;100.00
51239;BME280;38154;47.548;18.828;2022-11-18T08:32:25;97158.53;;;6.95;100.00
51239;BME280;38154;47.548;18.828;2022-11-18T08:34:51;97149.91;;;6.95;100.00
51239;BME280;38154;47.548;18.828;2022-11-18T08:37:17;97149.91;;;6.98;100.00
51239;BME280;38154;47.548;18.828;2022-11-18T08:39:43;97137.81;;;6.97;100.00
51239;BME280;38154;47.548;18.828;2022-11-18T08:42:09;97148.13;;;7.01;100.00
51239;BME280;38154;47.548;18.828;2022-11-18T08:44:35;97136.97;;;6.93;100.00
51239;BME280;38154;47.548;18.828;2022-11-18T08:47:01;97136.97;;;6.95;100.00
51239;BME280;38154;47.548;18.828;2022-11-18T08:49:27;97140.47;;;6.92;100.00
51239;BME280;38154;47.548;18.828;2022-11-18T08:51:53;97137.91;;;6.89;100.00
51239;BME280;38154;47.548;18.828;2022-11-18T08:54:19;97139.66;;;6.85;100.00
51239;BME280;38154;47.548;18.828;2022-11-18T08:56:45;97130.19;;;6.83;100.00
51239;BME280;38154;47.548;18.828;2022-11-18T08:59:11;97128.44;;;6.83;100.00
51239;BME280;38154;47.548;18.828;2022-11-18T09:01:38;97130.97;;;6.90;100.00
51239;BME280;38154;47.548;18.828;2022-11-18T09:04:06;97132.75;;;6.86;100.00
51239;BME280;38154;47.548;18.828;2022-11-18T09:06:32;97128.37;;;6.90;100.00
51239;BME280;38154;47.548;18.828;2022-11-18T09:08:59;97127.56;;;6.84;100.00
51239;BME280;38154;47.548;18.828;2022-11-18T09:11:26;97123.19;;;6.91;100.00
51239;BME280;38154;47.548;18.828;2022-11-18T09:13:53;97131.81;;;6.93;100.00
51239;BME280;38154;47.548;18.828;2022-11-18T09:16:21;97129.25;;;6.87;100.00
51239;BME280;38154;47.548;18.828;2022-11-18T09:18:49;97135.31;;;6.87;100.00
51239;BME280;38154;47.548;18.828;2022-11-18T09:21:16;97125.84;;;6.85;100.00
51239;BME280;38154;47.548;18.828;2022-11-18T09:23:42;97131.91;;;6.84;100.00
51239;BME280;38154;47.548;18.828;2022-11-18T09:26:11;97110.22;;;6.93;100.00
51239;BME280;38154;47.548;18.828;2022-11-18T09:28:38;97097.28;;;6.91;100.00
51239;BME280;38154;47.548;18.828;2022-11-18T09:31:15;97100.66;;;6.99;100.00
51239;BME280;38154;47.548;18.828;2022-11-18T09:33:42;97082.47;;;7.04;100.00
51239;BME280;38154;47.548;18.828;2022-11-18T09:36:21;97086.69;;;7.11;100.00
51239;BME280;38154;47.548;18.828;2022-11-18T09:38:47;97091.84;;;7.13;100.00
51239;BME280;38154;47.548;18.828;2022-11-18T09:41:44;97100.53;;;7.07;100.00
51239;BME280;38154;47.548;18.828;2022-11-18T09:49:39;97093.62;;;7.11;100.00
51239;BME280;38154;47.548;18.828;2022-11-18T09:54:37;97086.66;;;7.13;100.00
51239;BME280;38154;47.548;18.828;2022-11-18T09:57:37;97077.06;;;7.21;100.00
51239;BME280;38154;47.548;18.828;2022-11-18T10:00:01;97066.69;;;7.22;100.00
51239;BME280;38154;47.548;18.828;2022-11-18T10:02:46;97068.09;;;7.43;100.00
51239;BME280;38154;47.548;18.828;2022-11-18T10:05:25;97054.81;;;7.67;100.00
51239;BME280;38154;47.548;18.828;2022-11-18T10:08:08;97049.53;;;7.74;100.00
51239;BME280;38154;47.548;18.828;2022-11-18T10:19:24;97049.50;;;7.76;100.00
51239;BME280;38154;47.548;18.828;2022-11-18T10:22:12;97053.94;;;7.69;100.00
51239;BME280;38154;47.548;18.828;2022-11-18T10:24:48;97052.13;;;7.74;100.00
51239;BME280;38154;47.548;18.828;2022-11-18T10:27:16;97051.37;;;7.66;100.00
51239;BME280;38154;47.548;18.828;2022-11-18T10:29:43;97053.22;;;7.58;100.00
51239;BME280;38154;47.548;18.828;2022-11-18T10:32:16;97052.50;;;7.47;100.00
51239;BME280;38154;47.548;18.828;2022-11-18T10:34:48;97049.91;;;7.48;100.00
51239;BME280;38154;47.548;18.828;2022-11-18T10:37:26;97052.66;;;7.37;100.00
51239;BME280;38154;47.548;18.828;2022-11-18T10:39:57;97048.47;;;7.25;100.00
51239;BME280;38154;47.548;18.828;2022-11-18T10:42:45;97054.59;;;7.21;100.00
51239;BME280;38154;47.548;18.828;2022-11-18T10:48:05;97059.75;;;7.21;100.00
51239;BME280;38154;47.548;18.828;2022-11-18T10:50:37;97056.31;;;7.22;100.00
51239;BME280;38154;47.548;18.828;2022-11-18T10:53:05;97062.50;;;7.12;100.00
51239;BME280;38154;47.548;18.828;2022-11-18T10:55:32;97072.03;;;7.07;100.00
51239;BME280;38154;47.548;18.828;2022-11-18T10:58:09;97065.97;;;7.08;100.00
51239;BME280;38154;47.548;18.828;2022-11-18T11:03:28;97059.13;;;7.05;100.00
51239;BME280;38154;47.548;18.828;2022-11-18T11:06:21;97063.34;;;7.11;100.00
51239;BME280;38154;47.548;18.828;2022-11-18T11:08:55;97061.66;;;7.09;100.00
51239;BME280;38154;47.548;18.828;2022-11-18T11:11:24;97063.34;;;7.13;100.00
51239;BME280;38154;47.548;18.828;2022-11-18T11:13:55;97068.28;;;7.31;100.00
51239;BME280;38154;47.548;18.828;2022-11-18T11:16:24;97071.56;;;7.44;100.00
51239;BME280;38154;47.548;18.828;2022-11-18T11:18:55;97066.22;;;7.55;100.00
51239;BME280;38154;47.548;18.828;2022-11-18T11:21:25;97074.03;;;7.52;100.00
51239;BME280;38154;47.548;18.828;2022-11-18T11:23:54;97077.56;;;7.49;100.00
51239;BME280;38154;47.548;18.828;2022-11-18T11:26:50;97076.81;;;7.39;100.00
51239;BME280;38154;47.548;18.828;2022-11-18T11:35:01;97076.28;;;7.14;100.00
51239;BME280;38154;47.548;18.828;2022-11-18T11:37:50;97066.75;;;7.15;100.00
51239;BME280;38154;47.548;18.828;2022-11-18T11:40:33;97065.16;;;7.06;100.00
51239;BME280;38154;47.548;18.828;2022-11-18T11:50:51;97043.91;;;7.43;100.00
51239;BME280;38154;47.548;18.828;2022-11-18T11:53:35;97051.91;;;7.29;100.00
51239;BME280;38154;47.548;18.828;2022-11-18T11:56:22;97050.19;;;7.28;100.00
51239;BME280;38154;47.548;18.828;2022-11-18T11:59:16;97045.16;;;7.17;100.00
51239;BME280;38154;47.548;18.828;2022-11-18T12:04:30;97037.47;;;7.08;100.00
51239;BME280;38154;47.548;18.828;2022-11-18T12:06:58;97039.06;;;7.18;100.00
51239;BME280;38154;47.548;18.828;2022-11-18T12:15:18;97027.69;;;7.29;100.00
51239;BME280;38154;47.548;18.828;2022-11-18T12:23:15;97020.94;;;7.17;100.00
51239;BME280;38154;47.548;18.828;2022-11-18T12:30:49;97015.75;;;7.17;100.00
51239;BME280;38154;47.548;18.828;2022-11-18T12:33:16;97004.53;;;7.16;100.00
51239;BME280;38154;47.548;18.828;2022-11-18T12:35:47;96999.25;;;7.24;100.00
51239;BME280;38154;47.548;18.828;2022-11-18T12:38:29;97008.78;;;7.22;100.00
51239;BME280;38154;47.548;18.828;2022-11-18T12:40:55;97007.91;;;7.23;100.00
51239;BME280;38154;47.548;18.828;2022-11-18T12:51:52;97009.47;;;7.33;100.00
51239;BME280;38154;47.548;18.828;2022-11-18T12:54:42;97014.69;;;7.32;100.00
51239;BME280;38154;47.548;18.828;2022-11-18T12:57:21;97021.72;;;7.23;100.00
51239;BME280;38154;47.548;18.828;2022-11-18T12:59:47;97019.00;;;7.33;100.00
51239;BME280;38154;47.548;18.828;2022-11-18T13:02:19;97029.53;;;7.20;100.00
51239;BME280;38154;47.548;18.828;2022-11-18T13:05:02;97038.16;;;7.22;100.00
51239;BME280;38154;47.548;18.828;2022-11-18T13:07:31;97042.78;;;6.99;100.00
51239;BME280;38154;47.548;18.828;2022-11-18T13:10:21;97049.78;;;6.91;100.00
51239;BME280;38154;47.548;18.828;2022-11-18T13:12:49;97041.13;;;6.92;100.00
51239;BME280;38154;47.548;18.828;2022-11-18T13:15:17;97046.28;;;6.95;100.00
51239;BME280;38154;47.548;18.828;2022-11-18T13:18:10;97048.09;;;6.86;100.00
51239;BME280;38154;47.548;18.828;2022-11-18T13:20:38;97050.75;;;6.80;100.00
51239;BME280;38154;47.548;18.828;2022-11-18T13:23:25;97055.94;;;6.80;100.00
51239;BME280;38154;47.548;18.828;2022-11-18T13:26:21;97049.06;;;6.79;100.00
51239;BME280;38154;47.548;18.828;2022-11-18T13:31:57;97050.69;;;6.86;100.00
51239;BME280;38154;47.548;18.828;2022-11-18T13:34:27;97052.31;;;6.95;100.00
51239;BME280;38154;47.548;18.828;2022-11-18T13:36:55;97060.03;;;6.98;100.00
51239;BME280;38154;47.548;18.828;2022-11-18T13:39:29;97053.03;;;7.08;100.00
51239;BME280;38154;47.548;18.828;2022-11-18T13:42:02;97059.16;;;7.01;100.00
51239;BME280;38154;47.548;18.828;2022-11-18T13:44:31;97058.25;;;7.05;100.00
51239;BME280;38154;47.548;18.828;2022-11-18T13:53:13;97058.22;;;7.08;100.00
51239;BME280;38154;47.548;18.828;2022-11-18T13:55:48;97047.16;;;6.94;100.00
51239;BME280;38154;47.548;18.828;2022-11-18T13:58:40;97037.69;;;6.91;100.00
51239;BME280;38154;47.548;18.828;2022-11-18T14:01:12;97039.34;;;6.95;100.00
51239;BME280;38154;47.548;18.828;2022-11-18T14:03:57;97038.22;;;7.18;100.00
51239;BME280;38154;47.548;18.828;2022-11-18T14:06:26;97042.66;;;7.08;100.00
51239;BME280;38154;47.548;18.828;2022-11-18T14:09:04;97039.28;;;7.03;100.00
51239;BME280;38154;47.548;18.828;2022-11-18T14:11:35;97040.03;;;7.10;100.00
51239;BME280;38154;47.548;18.828;2022-11-18T14:14:02;97049.56;;;7.11;100.00
51239;BME280;38154;47.548;18.828;2022-11-18T14:16:35;97049.59;;;7.06;100.00
51239;BME280;38154;47.548;18.828;2022-11-18T14:19:01;97057.41;;;7.03;100.00
51239;BME280;38154;47.548;18.828;2022-11-18T14:21:32;97066.94;;;7.02;100.00
51239;BME280;38154;47.548;18.828;2022-11-18T14:23:59;97062.38;;;7.20;100.00
51239;BME280;38154;47.548;18.828;2022-11-18T14:26:34;97063.22;;;7.20;100.00
51239;BME280;38154;47.548;18.828;2022-11-18T14:29:13;97061.38;;;7.30;100.00
51239;BME280;38154;47.548;18.828;2022-11-18T14:32:11;97070.09;;;7.26;100.00
51239;BME280;38154;47.548;18.828;2022-11-18T14:34:37;97061.53;;;7.19;100.00
51239;BME280;38154;47.548;18.828;2022-11-18T14:37:09;97058.84;;;7.25;100.00
51239;BME280;38154;47.548;18.828;2022-11-18T14:39:36;97058.81;;;7.27;100.00
51239;BME280;38154;47.548;18.828;2022-11-18T14:42:03;97059.59;;;7.34;100.00
51239;BME280;38154;47.548;18.828;2022-11-18T14:44:31;97056.91;;;7.41;100.00
51239;BME280;38154;47.548;18.828;2022-11-18T14:47:17;97053.63;;;7.29;100.00
51239;BME280;38154;47.548;18.828;2022-11-18T14:49:45;97059.69;;;7.28;100.00